createdAt,value
2022-12-26T00:01:40.286Z,-1.34
2022-12-26T00:04:50.930Z,-1.41
2022-12-26T00:06:57.263Z,-1.45
2022-12-26T00:09:25.445Z,-1.46
2022-12-26T00:11:53.821Z,-1.45
2022-12-26T00:14:21.905Z,-1.47
2022-12-26T00:16:50.171Z,-1.43
2022-12-26T00:19:18.512Z,-1.38
2022-12-26T00:21:46.760Z,-1.33
2022-12-26T00:24:15.144Z,-1.30
2022-12-26T00:26:43.165Z,-1.29
2022-12-26T00:29:11.171Z,-1.25
2022-12-26T00:31:39.422Z,-1.24
2022-12-26T00:34:07.614Z,-1.24
2022-12-26T00:36:35.903Z,-1.20
2022-12-26T00:39:04.572Z,-1.15
2022-12-26T00:41:33.709Z,-1.12
2022-12-26T00:44:01.839Z,-1.16
2022-12-26T00:46:30.174Z,-1.21
2022-12-26T00:48:58.486Z,-1.25
2022-12-26T00:51:26.825Z,-1.31
2022-12-26T00:53:54.888Z,-1.42
2022-12-26T00:56:22.906Z,-1.49
2022-12-26T00:58:52.720Z,-1.56
2022-12-26T01:01:23.603Z,-1.61
2022-12-26T01:03:52.575Z,-1.61
2022-12-26T01:06:20.626Z,-1.60
2022-12-26T01:08:49.118Z,-1.54
2022-12-26T01:11:40.514Z,-1.46
2022-12-26T01:14:15.078Z,-1.40
2022-12-26T01:16:45.462Z,-1.36
2022-12-26T01:19:14.327Z,-1.31
2022-12-26T01:21:43.315Z,-1.27
2022-12-26T01:24:11.962Z,-1.31
2022-12-26T01:26:39.954Z,-1.34
2022-12-26T01:29:09.020Z,-1.33
2022-12-26T01:31:37.296Z,-1.28
2022-12-26T01:34:05.428Z,-1.23
2022-12-26T01:36:33.509Z,-1.31
2022-12-26T01:39:01.558Z,-1.35
2022-12-26T01:41:30.563Z,-1.30
2022-12-26T01:44:04.677Z,-1.27
2022-12-26T01:46:39.214Z,-1.33
2022-12-26T01:49:21.790Z,-1.34
2022-12-26T01:51:56.907Z,-1.28
2022-12-26T01:54:39.277Z,-1.32
2022-12-26T01:57:16.219Z,-1.36
2022-12-26T01:59:46.519Z,-1.29
2022-12-26T02:02:17.015Z,-1.37
2022-12-26T02:05:07.912Z,-1.37
2022-12-26T02:07:39.605Z,-1.22
2022-12-26T02:10:13.423Z,-1.08
2022-12-26T02:12:41.665Z,-0.93
2022-12-26T02:15:16.994Z,-0.85
2022-12-26T02:17:48.056Z,-0.78
2022-12-26T02:20:24.024Z,-0.66
2022-12-26T02:23:40.679Z,-0.57
2022-12-26T02:26:53.503Z,-0.46
2022-12-26T02:29:45.707Z,-0.40
2022-12-26T02:32:38.911Z,-0.35
2022-12-26T02:35:25.295Z,-0.31
2022-12-26T02:38:27.931Z,-0.31
2022-12-26T02:41:02.041Z,-0.33
2022-12-26T02:43:58.221Z,-0.33
2022-12-26T02:46:50.834Z,-0.28
2022-12-26T02:49:26.343Z,-0.22
2022-12-26T02:52:16.301Z,-0.19
2022-12-26T02:55:19.439Z,-0.16
2022-12-26T02:58:17.507Z,-0.11
2022-12-26T03:01:07.557Z,-0.06
2022-12-26T03:03:57.985Z,-0.01
2022-12-26T03:06:48.669Z,0.05
2022-12-26T03:09:41.283Z,0.10
2022-12-26T03:13:02.679Z,0.12
2022-12-26T03:15:54.507Z,0.13
2022-12-26T03:18:57.141Z,0.10
2022-12-26T03:21:17.044Z,0.09
2022-12-26T03:23:47.718Z,0.02
2022-12-26T03:26:39.452Z,-0.09
2022-12-26T03:29:35.796Z,-0.10
2022-12-26T03:32:05.795Z,-0.08
2022-12-26T03:34:37.663Z,-0.05
2022-12-26T03:37:47.646Z,0.00
2022-12-26T03:40:56.793Z,0.09
2022-12-26T03:44:05.330Z,0.18
2022-12-26T03:46:55.151Z,0.22
2022-12-26T03:49:47.533Z,0.26
2022-12-26T03:52:45.367Z,0.27
2022-12-26T03:55:59.325Z,0.28
2022-12-26T03:58:54.996Z,0.33
2022-12-26T04:01:46.344Z,0.38
2022-12-26T04:04:35.597Z,0.42
2022-12-26T04:07:28.956Z,0.43
2022-12-26T04:10:35.870Z,0.46
2022-12-26T04:13:30.046Z,0.50
2022-12-26T04:16:40.316Z,0.55
2022-12-26T04:19:27.619Z,0.60
2022-12-26T04:22:20.298Z,0.66
2022-12-26T04:25:19.358Z,0.73
2022-12-26T04:28:06.617Z,0.80
2022-12-26T04:30:57.732Z,0.88
2022-12-26T04:33:52.984Z,0.97
2022-12-26T04:36:47.807Z,1.03
2022-12-26T04:39:39.932Z,1.06
2022-12-26T04:42:27.591Z,1.06
2022-12-26T04:44:57.691Z,1.07
2022-12-26T04:47:25.964Z,1.09
2022-12-26T04:50:12.383Z,1.10
2022-12-26T04:53:00.860Z,1.09
2022-12-26T04:55:32.322Z,1.07
2022-12-26T04:58:00.439Z,1.06
2022-12-26T05:00:29.390Z,1.07
2022-12-26T05:03:26.643Z,1.06
2022-12-26T05:06:13.707Z,1.08
2022-12-26T05:09:02.795Z,1.10
2022-12-26T05:11:32.845Z,1.14
2022-12-26T05:14:01.602Z,1.20
2022-12-26T05:16:48.185Z,1.28
2022-12-26T05:19:36.895Z,1.34
2022-12-26T05:22:24.306Z,1.39
2022-12-26T05:25:11.469Z,1.42
2022-12-26T05:28:02.670Z,1.42
2022-12-26T05:30:31.105Z,1.41
2022-12-26T05:33:17.966Z,1.34
2022-12-26T05:35:46.047Z,1.31
2022-12-26T05:38:15.037Z,1.28
2022-12-26T05:40:43.128Z,1.22
2022-12-26T05:43:11.198Z,1.15
2022-12-26T05:45:39.264Z,1.10
2022-12-26T05:48:07.304Z,1.06
2022-12-26T05:50:35.479Z,1.03
2022-12-26T05:53:04.353Z,1.03
2022-12-26T05:55:32.535Z,1.04
2022-12-26T05:58:01.305Z,1.06
2022-12-26T06:00:30.436Z,1.06
2022-12-26T06:03:02.463Z,1.07
2022-12-26T06:05:30.738Z,1.09
2022-12-26T06:07:58.970Z,1.11
2022-12-26T06:10:29.770Z,1.15
2022-12-26T06:13:00.244Z,1.16
2022-12-26T06:15:28.336Z,1.15
2022-12-26T06:17:56.863Z,1.17
2022-12-26T06:20:24.871Z,1.20
2022-12-26T06:22:52.904Z,1.19
2022-12-26T06:25:21.063Z,1.18
2022-12-26T06:27:49.175Z,1.15
2022-12-26T06:30:17.217Z,1.17
2022-12-26T06:32:45.367Z,1.20
2022-12-26T06:35:13.454Z,1.24
2022-12-26T06:37:41.678Z,1.25
2022-12-26T06:40:10.609Z,1.28
2022-12-26T06:42:39.334Z,1.30
2022-12-26T06:45:07.795Z,1.32
2022-12-26T06:47:35.774Z,1.33
2022-12-26T06:50:05.791Z,1.35
2022-12-26T06:52:34.316Z,1.39
2022-12-26T06:55:02.410Z,1.41
2022-12-26T06:57:30.785Z,1.42
2022-12-26T06:59:58.830Z,1.44
2022-12-26T07:02:26.971Z,1.44
2022-12-26T07:04:55.015Z,1.42
2022-12-26T07:07:22.999Z,1.42
2022-12-26T07:09:51.165Z,1.44
2022-12-26T07:12:21.921Z,1.48
2022-12-26T07:14:49.961Z,1.51
2022-12-26T07:17:18.081Z,1.53
2022-12-26T07:19:46.114Z,1.56
2022-12-26T07:22:14.257Z,1.60
2022-12-26T07:24:42.224Z,1.63
2022-12-26T07:27:10.320Z,1.66
2022-12-26T07:29:44.181Z,1.69
2022-12-26T07:32:14.042Z,1.71
2022-12-26T07:34:42.885Z,1.72
2022-12-26T07:37:11.019Z,1.74
2022-12-26T07:39:39.092Z,1.76
2022-12-26T07:42:07.256Z,1.77
2022-12-26T07:44:35.460Z,1.78
2022-12-26T07:47:04.024Z,1.80
2022-12-26T07:49:32.788Z,1.83
2022-12-26T07:52:02.016Z,1.89
2022-12-26T07:54:32.547Z,1.94
2022-12-26T07:57:29.858Z,1.98
2022-12-26T07:59:53.071Z,1.98
2022-12-26T08:02:23.976Z,1.99
2022-12-26T08:04:52.528Z,2.03
2022-12-26T08:07:20.568Z,2.08
2022-12-26T08:09:48.764Z,2.12
2022-12-26T08:12:16.830Z,2.18
2022-12-26T08:14:44.855Z,2.25
2022-12-26T08:17:13.410Z,2.30
2022-12-26T08:19:41.448Z,2.33
2022-12-26T08:22:09.493Z,2.37
2022-12-26T08:24:37.593Z,2.40
2022-12-26T08:27:05.794Z,2.44
2022-12-26T08:29:33.907Z,2.48
2022-12-26T08:32:02.212Z,2.52
2022-12-26T08:34:35.186Z,2.54
2022-12-26T08:37:03.425Z,2.58
2022-12-26T08:39:31.606Z,2.63
2022-12-26T08:41:59.717Z,2.68
2022-12-26T08:44:28.693Z,2.74
2022-12-26T08:46:57.549Z,2.83
2022-12-26T08:49:25.760Z,2.91
2022-12-26T08:51:53.861Z,2.98
2022-12-26T08:54:23.052Z,3.02
2022-12-26T08:56:51.204Z,3.10
2022-12-26T08:59:20.058Z,3.16
2022-12-26T09:01:48.622Z,3.14
2022-12-26T09:04:16.906Z,3.19
2022-12-26T09:06:44.980Z,3.27
2022-12-26T09:09:13.640Z,3.36
2022-12-26T09:11:42.580Z,3.48
2022-12-26T09:14:11.629Z,3.60
2022-12-26T09:16:50.498Z,3.69
2022-12-26T09:19:21.529Z,3.76
2022-12-26T09:22:10.647Z,3.79
2022-12-26T09:24:39.039Z,3.69
2022-12-26T09:27:07.375Z,3.66
2022-12-26T09:29:35.710Z,3.71
2022-12-26T09:32:04.802Z,3.78
2022-12-26T09:34:32.839Z,3.84
2022-12-26T09:37:01.020Z,3.92
2022-12-26T09:39:29.219Z,3.99
2022-12-26T09:42:24.835Z,4.03
2022-12-26T09:45:23.864Z,4.07
2022-12-26T09:48:14.238Z,4.12
2022-12-26T09:50:43.525Z,4.15
2022-12-26T09:53:18.426Z,4.06
2022-12-26T09:56:23.772Z,3.97
2022-12-26T09:59:08.244Z,3.95
2022-12-26T10:01:37.471Z,3.97
2022-12-26T10:04:28.221Z,4.01
2022-12-26T10:07:20.915Z,4.03
2022-12-26T10:09:51.991Z,4.08
2022-12-26T10:12:38.819Z,4.18
2022-12-26T10:15:28.194Z,4.23
2022-12-26T10:18:06.968Z,4.28
2022-12-26T10:21:00.371Z,4.28
2022-12-26T10:23:34.419Z,4.27
2022-12-26T10:26:09.659Z,4.26
2022-12-26T10:28:50.143Z,4.24
2022-12-26T10:31:52.618Z,4.18
2022-12-26T10:34:40.195Z,4.21
2022-12-26T10:37:25.192Z,4.25
2022-12-26T10:40:02.180Z,4.31
2022-12-26T10:42:37.713Z,4.37
2022-12-26T10:45:40.668Z,4.42
2022-12-26T10:48:14.130Z,4.41
2022-12-26T10:50:49.308Z,4.32
2022-12-26T10:53:17.799Z,4.23
2022-12-26T10:55:45.983Z,4.23
2022-12-26T10:58:30.308Z,4.26
2022-12-26T11:01:37.925Z,4.30
2022-12-26T11:07:18.072Z,4.31
2022-12-26T11:09:46.361Z,4.41
2022-12-26T11:12:30.741Z,4.48
2022-12-26T11:15:02.650Z,4.58
2022-12-26T11:17:34.605Z,4.68
2022-12-26T11:20:10.297Z,4.82
2022-12-26T11:22:38.563Z,4.90
2022-12-26T11:25:09.836Z,4.92
2022-12-26T11:27:59.665Z,4.95
2022-12-26T11:30:32.045Z,4.96
2022-12-26T11:33:27.955Z,5.01
2022-12-26T11:36:05.983Z,5.07
2022-12-26T11:38:45.484Z,5.15
2022-12-26T11:41:37.018Z,5.28
2022-12-26T11:44:17.861Z,5.31
2022-12-26T11:47:10.511Z,5.35
2022-12-26T11:49:46.471Z,5.49
2022-12-26T11:52:37.665Z,5.54
2022-12-26T11:55:29.262Z,5.51
2022-12-26T11:58:25.404Z,5.51
2022-12-26T12:00:55.266Z,5.51
2022-12-26T12:03:49.887Z,5.45
2022-12-26T12:06:44.201Z,5.47
2022-12-26T12:09:35.279Z,5.46
2022-12-26T12:12:24.209Z,5.41
2022-12-26T12:15:09.940Z,5.33
2022-12-26T12:18:01.230Z,5.29
2022-12-26T12:20:57.201Z,5.27
2022-12-26T12:23:31.894Z,5.26
2022-12-26T12:26:10.428Z,5.25
2022-12-26T12:28:56.931Z,5.25
2022-12-26T12:31:30.882Z,5.29
2022-12-26T12:34:31.625Z,5.33
2022-12-26T12:37:18.312Z,5.38
2022-12-26T12:40:01.463Z,5.37
2022-12-26T12:42:53.597Z,5.44
2022-12-26T12:45:27.394Z,5.51
2022-12-26T12:48:04.872Z,5.55
2022-12-26T12:50:44.802Z,5.58
2022-12-26T12:53:19.245Z,5.60
2022-12-26T12:56:16.358Z,5.60
2022-12-26T12:59:03.095Z,5.59
2022-12-26T13:01:38.656Z,5.60
2022-12-26T13:04:13.982Z,5.58
2022-12-26T13:07:00.343Z,5.52
2022-12-26T13:10:00.933Z,5.52
2022-12-26T13:12:40.313Z,5.55
2022-12-26T13:15:36.026Z,5.59
2022-12-26T13:18:08.498Z,5.61
2022-12-26T13:20:40.046Z,5.62
2022-12-26T13:23:51.609Z,5.62
2022-12-26T13:26:28.806Z,5.58
2022-12-26T13:29:15.955Z,5.57
2022-12-26T13:31:45.841Z,5.55
2022-12-26T13:34:19.833Z,5.56
2022-12-26T13:36:51.280Z,5.57
2022-12-26T13:39:30.737Z,5.60
2022-12-26T13:42:23.926Z,5.64
2022-12-26T13:44:53.817Z,5.65
2022-12-26T13:47:39.177Z,5.64
2022-12-26T13:50:48.508Z,5.60
2022-12-26T13:53:24.805Z,5.55
2022-12-26T13:56:04.581Z,5.53
2022-12-26T13:58:35.787Z,5.50
2022-12-26T14:01:31.948Z,5.48
2022-12-26T14:04:18.797Z,5.49
2022-12-26T14:07:24.890Z,5.47
2022-12-26T14:10:03.920Z,5.46
2022-12-26T14:12:53.770Z,5.46
2022-12-26T14:15:53.038Z,5.41
2022-12-26T14:18:47.456Z,5.38
2022-12-26T14:21:15.774Z,5.32
2022-12-26T14:23:56.338Z,5.29
2022-12-26T14:27:02.144Z,5.27
2022-12-26T14:30:12.265Z,5.25
2022-12-26T14:33:12.945Z,5.26
2022-12-26T14:36:01.635Z,5.27
2022-12-26T14:38:35.249Z,5.27
2022-12-26T14:41:07.447Z,5.27
2022-12-26T14:43:41.332Z,5.28
2022-12-26T14:46:32.208Z,5.29
2022-12-26T14:49:36.354Z,5.26
2022-12-26T14:52:23.477Z,5.23
2022-12-26T14:54:56.097Z,5.19
2022-12-26T14:57:46.021Z,5.15
2022-12-26T15:00:23.419Z,5.12
2022-12-26T15:03:03.553Z,5.11
2022-12-26T15:05:37.667Z,5.08
2022-12-26T15:08:27.632Z,5.08
2022-12-26T15:11:31.579Z,5.07
2022-12-26T15:14:09.434Z,5.04
2022-12-26T15:17:00.242Z,5.05
2022-12-26T15:19:43.990Z,5.02
2022-12-26T15:22:24.729Z,4.99
2022-12-26T15:28:15.830Z,4.87
2022-12-26T15:31:14.793Z,4.80
2022-12-26T15:34:03.320Z,4.73
2022-12-26T15:36:58.232Z,4.69
2022-12-26T15:39:45.469Z,4.64
2022-12-26T15:42:32.067Z,4.62
2022-12-26T15:45:27.728Z,4.60
2022-12-26T15:48:06.958Z,4.58
2022-12-26T15:50:50.419Z,4.57
2022-12-26T15:53:43.501Z,4.56
2022-12-26T15:56:12.276Z,4.54
2022-12-26T15:59:09.921Z,4.49
2022-12-26T16:01:41.542Z,4.44
2022-12-26T16:04:33.590Z,4.37
2022-12-26T16:07:09.227Z,4.29
2022-12-26T16:09:45.229Z,4.19
2022-12-26T16:12:27.673Z,4.09
2022-12-26T16:15:11.578Z,4.00
2022-12-26T16:17:41.876Z,3.90
2022-12-26T16:20:43.904Z,3.81
2022-12-26T16:23:17.026Z,3.69
2022-12-26T16:25:50.797Z,3.61
2022-12-26T16:28:25.516Z,3.56
2022-12-26T16:30:53.861Z,3.49
2022-12-26T16:33:22.135Z,3.44
2022-12-26T16:35:53.867Z,3.41
2022-12-26T16:38:30.214Z,3.37
2022-12-26T16:41:00.690Z,3.35
2022-12-26T16:43:34.704Z,3.34
2022-12-26T16:46:06.313Z,3.33
2022-12-26T16:48:36.883Z,3.33
2022-12-26T16:51:06.484Z,3.30
2022-12-26T16:53:37.405Z,3.27
2022-12-26T16:56:24.614Z,3.22
2022-12-26T16:59:02.753Z,3.16
2022-12-26T17:01:33.461Z,3.09
2022-12-26T17:04:08.326Z,3.02
2022-12-26T17:06:38.894Z,2.96
2022-12-26T17:09:08.660Z,2.87
2022-12-26T17:11:38.797Z,2.78
2022-12-26T17:14:16.281Z,2.71
2022-12-26T17:16:44.259Z,2.65
2022-12-26T17:19:19.718Z,2.61
2022-12-26T17:22:08.230Z,2.55
2022-12-26T17:24:36.349Z,2.49
2022-12-26T17:27:10.005Z,2.46
2022-12-26T17:29:47.125Z,2.42
2022-12-26T17:32:20.672Z,2.38
2022-12-26T17:34:49.206Z,2.36
2022-12-26T17:37:23.377Z,2.36
2022-12-26T17:40:04.442Z,2.35
2022-12-26T17:42:40.122Z,2.37
2022-12-26T17:45:09.392Z,2.39
2022-12-26T17:47:37.731Z,2.41
2022-12-26T17:50:05.906Z,2.44
2022-12-26T17:52:34.596Z,2.46
2022-12-26T17:55:03.617Z,2.46
2022-12-26T17:57:31.778Z,2.47
2022-12-26T17:59:59.897Z,2.47
2022-12-26T18:02:28.238Z,2.47
2022-12-26T18:04:56.556Z,2.45
2022-12-26T18:07:31.058Z,2.42
2022-12-26T18:10:01.183Z,2.37
2022-12-26T18:12:29.508Z,2.33
2022-12-26T18:15:01.691Z,2.30
2022-12-26T18:17:32.841Z,2.25
2022-12-26T18:20:01.906Z,2.20
2022-12-26T18:22:30.374Z,2.14
2022-12-26T18:24:58.551Z,2.07
2022-12-26T18:27:31.138Z,2.00
2022-12-26T18:29:59.499Z,1.94
2022-12-26T18:32:31.221Z,1.90
2022-12-26T18:34:59.805Z,1.84
2022-12-26T18:37:29.349Z,1.77
2022-12-26T18:39:58.361Z,1.73
2022-12-26T18:42:27.492Z,1.69
2022-12-26T18:44:55.982Z,1.67
2022-12-26T18:47:24.286Z,1.62
2022-12-26T18:49:52.534Z,1.58
2022-12-26T18:52:20.745Z,1.54
2022-12-26T18:54:48.665Z,1.51
2022-12-26T18:57:19.624Z,1.49
2022-12-26T18:59:48.546Z,1.46
2022-12-26T19:02:17.951Z,1.44
2022-12-26T19:04:48.738Z,1.43
2022-12-26T19:07:18.087Z,1.41
2022-12-26T19:09:47.666Z,1.38
2022-12-26T19:12:16.268Z,1.36
2022-12-26T19:14:44.492Z,1.34
2022-12-26T19:17:12.781Z,1.33
2022-12-26T19:19:40.735Z,1.33
2022-12-26T19:22:08.761Z,1.36
2022-12-26T19:24:36.786Z,1.38
2022-12-26T19:27:04.917Z,1.41
2022-12-26T19:29:33.401Z,1.44
2022-12-26T19:32:01.358Z,1.49
2022-12-26T19:34:29.701Z,1.54
2022-12-26T19:36:57.844Z,1.58
2022-12-26T19:39:25.870Z,1.61
2022-12-26T19:41:53.702Z,1.64
2022-12-26T19:44:21.679Z,1.68
2022-12-26T19:46:49.686Z,1.71
2022-12-26T19:49:37.653Z,1.66
2022-12-26T19:52:05.627Z,1.65
2022-12-26T19:54:33.568Z,1.68
2022-12-26T19:57:01.437Z,1.66
2022-12-26T19:59:29.293Z,1.62
2022-12-26T20:01:57.390Z,1.57
2022-12-26T20:04:25.335Z,1.52
2022-12-26T20:06:53.338Z,1.47
2022-12-26T20:09:21.407Z,1.43
2022-12-26T20:11:49.739Z,1.39
2022-12-26T20:14:18.680Z,1.34
2022-12-26T20:17:08.571Z,1.31
2022-12-26T20:19:37.410Z,1.29
2022-12-26T20:22:06.281Z,1.27
2022-12-26T20:24:34.905Z,1.28
2022-12-26T20:27:03.524Z,1.30
2022-12-26T20:29:31.579Z,1.34
2022-12-26T20:31:59.817Z,1.38
2022-12-26T20:34:27.735Z,1.43
2022-12-26T20:36:55.691Z,1.50
2022-12-26T20:39:23.766Z,1.56
2022-12-26T20:41:51.768Z,1.60
2022-12-26T20:44:19.904Z,1.65
2022-12-26T20:46:48.185Z,1.70
2022-12-26T20:49:16.438Z,1.73
2022-12-26T20:51:45.038Z,1.75
2022-12-26T20:54:13.874Z,1.74
2022-12-26T20:56:42.225Z,1.70
2022-12-26T20:59:10.258Z,1.66
2022-12-26T21:01:40.201Z,1.61
2022-12-26T21:04:08.698Z,1.57
2022-12-26T21:06:37.608Z,1.54
2022-12-26T21:09:06.746Z,1.50
2022-12-26T21:11:36.476Z,1.44
2022-12-26T21:14:06.269Z,1.40
2022-12-26T21:16:38.922Z,1.35
2022-12-26T21:19:14.307Z,1.32
2022-12-26T21:21:47.551Z,1.32
2022-12-26T21:24:17.509Z,1.33
2022-12-26T21:26:45.934Z,1.35
2022-12-26T21:29:24.861Z,1.37
2022-12-26T21:31:53.596Z,1.38
2022-12-26T21:34:22.739Z,1.36
2022-12-26T21:37:09.988Z,1.36
2022-12-26T21:39:38.265Z,1.38
2022-12-26T21:42:07.332Z,1.41
2022-12-26T21:44:35.996Z,1.43
2022-12-26T21:47:04.598Z,1.45
2022-12-26T21:49:32.659Z,1.45
2022-12-26T21:52:00.711Z,1.43
2022-12-26T21:54:49.280Z,1.42
2022-12-26T21:57:17.992Z,1.41
2022-12-26T21:59:58.637Z,1.39
2022-12-26T22:02:47.944Z,1.38
2022-12-26T22:05:17.527Z,1.35
2022-12-26T22:07:46.113Z,1.31
2022-12-26T22:10:37.740Z,1.28
2022-12-26T22:13:06.305Z,1.24
2022-12-26T22:15:53.096Z,1.21
2022-12-26T22:18:21.025Z,1.17
2022-12-26T22:20:48.962Z,1.14
2022-12-26T22:23:16.929Z,1.08
2022-12-26T22:25:52.164Z,1.03
2022-12-26T22:28:23.322Z,1.02
2022-12-26T22:30:51.738Z,1.02
2022-12-26T22:33:20.121Z,1.03
2022-12-26T22:35:48.132Z,1.06
2022-12-26T22:38:16.153Z,1.07
2022-12-26T22:40:51.939Z,1.09
2022-12-26T22:43:19.919Z,1.13
2022-12-26T22:45:47.859Z,1.21
2022-12-26T22:48:15.966Z,1.32
2022-12-26T22:50:48.361Z,1.41
2022-12-26T22:53:16.757Z,1.48
2022-12-26T22:55:46.702Z,1.56
2022-12-26T22:58:15.278Z,1.66
2022-12-26T23:00:44.373Z,1.77
2022-12-26T23:03:13.592Z,1.82
2022-12-26T23:05:42.765Z,1.86
2022-12-26T23:08:15.083Z,1.95
2022-12-26T23:10:43.670Z,2.02
2022-12-26T23:13:12.875Z,2.04
2022-12-26T23:15:59.714Z,2.01
2022-12-26T23:18:49.399Z,1.93
2022-12-26T23:21:42.399Z,1.94
2022-12-26T23:24:16.255Z,2.02
2022-12-26T23:26:47.092Z,2.11
2022-12-26T23:29:35.274Z,2.20
2022-12-26T23:32:03.853Z,2.30
2022-12-26T23:34:31.751Z,2.37
2022-12-26T23:36:59.777Z,2.41
2022-12-26T23:39:28.438Z,2.46
2022-12-26T23:41:56.321Z,2.52
2022-12-26T23:44:24.581Z,2.58
2022-12-26T23:46:52.577Z,2.62
2022-12-26T23:49:20.533Z,2.64
2022-12-26T23:51:48.346Z,2.66
2022-12-26T23:54:16.157Z,2.66
2022-12-26T23:56:43.902Z,2.65
2022-12-26T23:59:11.728Z,2.66
